Time;durP1;ratioP1;P1;durP2;ratioP2;P2;SDS_P1;SDS_P2;PMS_P1;PMS_P2;Temp;Humidity;BMP_temperature;BMP_pressure;BME280_temperature;BME280_humidity;BME280_pressure;Samples;Min_cycle;Max_cycle;Signal;HPM_P1;HPM_P2
2022/07/22 00:00:15;;;;;;;8.75;7.85;;;18.50;99.90;;;;;;5115814;28;20197;-82
2022/07/22 00:02:42;;;;;;;9.63;8.07;;;18.50;99.90;;;;;;5104076;28;20240;-82
2022/07/22 00:05:10;;;;;;;9.93;8.07;;;18.40;99.90;;;;;;5097899;28;20213;-82
2022/07/22 00:07:37;;;;;;;10.10;8.13;;;18.40;99.90;;;;;;5115875;28;20208;-82
2022/07/22 00:10:06;;;;;;;11.20;8.20;;;18.40;99.90;;;;;;5114483;28;20220;-83
2022/07/22 00:12:34;;;;;;;9.60;8.32;;;18.50;99.90;;;;;;5115676;28;20224;-82
2022/07/22 00:15:01;;;;;;;12.80;8.48;;;18.40;99.90;;;;;;5115018;28;20209;-83
2022/07/22 00:17:28;;;;;;;10.10;8.60;;;18.30;99.90;;;;;;5115812;28;20279;-83
2022/07/22 00:19:55;;;;;;;10.52;9.02;;;18.30;99.90;;;;;;5112464;28;20252;-82
2022/07/22 00:22:22;;;;;;;9.35;8.25;;;18.20;99.90;;;;;;5114922;28;20289;-82
2022/07/22 00:24:48;;;;;;;10.82;8.45;;;18.20;99.90;;;;;;5115157;28;20217;-82
2022/07/22 00:27:15;;;;;;;11.45;8.45;;;18.20;99.90;;;;;;5115416;28;20243;-82
2022/07/22 00:29:43;;;;;;;10.77;8.13;;;18.10;99.90;;;;;;5114349;28;20207;-82
2022/07/22 00:32:10;;;;;;;10.00;8.68;;;18.00;99.90;;;;;;5113648;28;20201;-82
2022/07/22 00:34:37;;;;;;;10.02;8.73;;;18.00;99.90;;;;;;5113207;28;20767;-82
2022/07/22 00:37:04;;;;;;;13.27;8.80;;;18.00;99.90;;;;;;5114381;28;20289;-82
2022/07/22 00:39:31;;;;;;;9.98;7.95;;;18.00;99.90;;;;;;5113172;28;20292;-82
2022/07/22 00:41:59;;;;;;;10.57;8.82;;;17.90;99.90;;;;;;5113391;28;20562;-82
2022/07/22 00:44:26;;;;;;;10.20;7.95;;;18.00;99.90;;;;;;5112163;28;20687;-82
2022/07/22 00:46:54;;;;;;;8.60;7.35;;;18.00;99.90;;;;;;5113568;28;20525;-82
2022/07/22 00:49:21;;;;;;;9.98;7.75;;;17.90;99.90;;;;;;5110701;28;20193;-82
2022/07/22 00:51:48;;;;;;;8.75;7.15;;;17.80;99.90;;;;;;5111683;28;20193;-82
2022/07/22 00:54:15;;;;;;;7.97;7.18;;;17.90;99.90;;;;;;5114312;28;20262;-82
2022/07/22 00:56:44;;;;;;;11.00;7.30;;;17.70;99.90;;;;;;5111147;28;20283;-82
2022/07/22 00:59:12;;;;;;;8.63;7.45;;;17.70;99.90;;;;;;5112554;28;20219;-82
2022/07/22 01:01:39;;;;;;;10.07;7.50;;;17.70;99.90;;;;;;5113801;28;20205;-82
2022/07/22 01:04:07;;;;;;;10.73;8.48;;;17.70;99.90;;;;;;5111257;28;20622;-82
2022/07/22 01:06:34;;;;;;;13.25;10.13;;;17.90;99.90;;;;;;5112949;28;20231;-82
2022/07/22 01:09:01;;;;;;;11.95;9.60;;;17.80;99.90;;;;;;5115367;28;20211;-82
2022/07/22 01:11:28;;;;;;;11.50;9.70;;;17.90;99.90;;;;;;5111857;28;20203;-82
2022/07/22 01:13:57;;;;;;;11.82;9.13;;;17.80;99.90;;;;;;5101839;28;20221;-82
2022/07/22 01:16:25;;;;;;;10.63;8.93;;;17.80;99.90;;;;;;5113905;28;20241;-82
2022/07/22 01:18:52;;;;;;;16.63;9.52;;;17.70;99.90;;;;;;5110329;28;20228;-82
2022/07/22 01:21:20;;;;;;;9.70;8.70;;;17.50;99.90;;;;;;5106922;28;20296;-82
2022/07/22 01:23:47;;;;;;;11.55;8.80;;;17.60;99.90;;;;;;5111831;28;20252;-82
2022/07/22 01:26:15;;;;;;;10.50;9.30;;;17.60;99.90;;;;;;5108003;28;20244;-82
2022/07/22 01:28:42;;;;;;;11.43;9.20;;;17.60;99.90;;;;;;5100188;28;20300;-82
2022/07/22 01:31:09;;;;;;;12.10;9.95;;;17.70;99.90;;;;;;5112071;28;20211;-82
2022/07/22 01:33:36;;;;;;;13.63;10.18;;;17.80;99.90;;;;;;5111750;28;20262;-82
2022/07/22 01:36:04;;;;;;;13.40;10.90;;;17.80;99.90;;;;;;5114458;28;20203;-82
2022/07/22 01:38:33;;;;;;;12.45;10.32;;;17.90;99.90;;;;;;5112295;28;20201;-82
2022/07/22 01:40:59;;;;;;;12.52;10.30;;;17.90;99.90;;;;;;5112863;28;20720;-83
2022/07/22 01:43:26;;;;;;;13.13;10.93;;;18.00;99.90;;;;;;5114062;28;20216;-82
2022/07/22 01:45:55;;;;;;;12.65;10.73;;;18.10;99.90;;;;;;5112564;28;20573;-82
2022/07/22 01:48:22;;;;;;;13.50;11.25;;;18.20;99.90;;;;;;5114418;28;20197;-82
2022/07/22 01:50:49;;;;;;;13.77;10.95;;;18.20;99.90;;;;;;5112516;28;20192;-82
2022/07/22 01:53:16;;;;;;;15.02;12.25;;;18.10;99.90;;;;;;5114298;28;20308;-82
2022/07/22 01:55:45;;;;;;;13.40;10.77;;;18.20;99.90;;;;;;5111933;28;20201;-82
2022/07/22 01:58:11;;;;;;;14.93;11.48;;;18.30;99.90;;;;;;5113747;28;20299;-82
2022/07/22 02:00:38;;;;;;;15.35;11.95;;;18.30;99.90;;;;;;5113687;28;20216;-82
2022/07/22 02:03:06;;;;;;;16.40;12.30;;;18.20;99.90;;;;;;5112019;28;20217;-82
2022/07/22 02:05:33;;;;;;;17.80;13.10;;;18.20;99.90;;;;;;5112225;28;20325;-82
2022/07/22 02:08:01;;;;;;;18.77;13.23;;;18.10;99.90;;;;;;5111789;28;20197;-82
2022/07/22 02:10:28;;;;;;;18.95;13.38;;;18.20;99.90;;;;;;5112194;28;20661;-83
2022/07/22 02:12:59;;;;;;;17.58;12.75;;;18.10;99.90;;;;;;5113923;28;20304;-83
2022/07/22 02:15:26;;;;;;;18.70;13.75;;;18.10;99.90;;;;;;5114863;28;20209;-83
2022/07/22 02:17:54;;;;;;;20.67;14.57;;;18.00;99.90;;;;;;5114683;28;20292;-83
2022/07/22 02:20:21;;;;;;;19.50;13.60;;;18.10;99.90;;;;;;5114405;28;20604;-82
2022/07/22 02:22:48;;;;;;;18.85;14.13;;;18.10;99.90;;;;;;5114346;28;20228;-82
2022/07/22 02:25:15;;;;;;;19.05;13.77;;;18.00;99.90;;;;;;5114851;28;20217;-82
2022/07/22 02:27:42;;;;;;;19.48;14.32;;;18.10;99.90;;;;;;5113918;28;20307;-82
2022/07/22 02:30:12;;;;;;;16.23;12.63;;;18.10;99.90;;;;;;5113407;28;20203;-82
2022/07/22 02:32:39;;;;;;;15.27;11.57;;;18.00;99.90;;;;;;5113785;28;20204;-82
2022/07/22 02:35:07;;;;;;;14.68;11.43;;;18.00;99.90;;;;;;5114346;28;20641;-82
2022/07/22 02:37:34;;;;;;;15.90;11.20;;;18.00;99.90;;;;;;5118111;28;20660;-82
2022/07/22 02:40:00;;;;;;;16.15;11.55;;;18.10;99.90;;;;;;5117728;28;20200;-82
2022/07/22 02:42:27;;;;;;;14.98;10.95;;;18.20;99.90;;;;;;5117491;28;20200;-82
2022/07/22 02:44:54;;;;;;;14.70;10.05;;;18.10;99.90;;;;;;5118141;28;20207;-82
2022/07/22 02:47:22;;;;;;;13.48;10.65;;;18.00;99.90;;;;;;5117863;28;20288;-82
2022/07/22 02:49:49;;;;;;;15.60;10.98;;;18.00;99.90;;;;;;5117892;28;20292;-82
2022/07/22 02:52:16;;;;;;;14.57;10.35;;;18.00;99.90;;;;;;5117589;28;20561;-82
2022/07/22 02:54:43;;;;;;;13.57;10.48;;;17.90;99.90;;;;;;5117223;28;20315;-81
2022/07/22 02:57:10;;;;;;;13.85;9.98;;;17.80;99.90;;;;;;5118054;28;20292;-81
2022/07/22 02:59:37;;;;;;;13.45;9.43;;;17.90;99.90;;;;;;5117858;28;20193;-81
2022/07/22 03:02:04;;;;;;;13.10;9.20;;;17.80;99.90;;;;;;5115603;28;20216;-82
2022/07/22 03:04:32;;;;;;;11.88;8.52;;;17.70;99.90;;;;;;5107470;28;20243;-82
2022/07/22 03:06:59;;;;;;;15.93;9.35;;;17.60;99.90;;;;;;5117266;28;20221;-82
2022/07/22 03:09:26;;;;;;;13.52;9.07;;;17.50;99.90;;;;;;5117599;28;20288;-82
2022/07/22 03:11:53;;;;;;;15.00;9.45;;;17.50;99.90;;;;;;5117279;28;20201;-82
2022/07/22 03:14:20;;;;;;;14.15;9.20;;;17.50;99.90;;;;;;5117625;28;20307;-81
2022/07/22 03:16:46;;;;;;;14.57;9.13;;;17.40;99.90;;;;;;5117472;28;20235;-82
2022/07/22 03:19:15;;;;;;;14.00;9.50;;;17.40;99.90;;;;;;5108856;28;20247;-80
2022/07/22 03:21:43;;;;;;;14.57;9.18;;;17.40;99.90;;;;;;5096729;28;20564;-82
2022/07/22 03:24:10;;;;;;;11.48;7.55;;;17.20;99.90;;;;;;5099247;28;20228;-82
2022/07/22 03:26:36;;;;;;;10.93;6.95;;;17.10;99.90;;;;;;5116566;28;20221;-82
2022/07/22 03:29:03;;;;;;;11.15;6.70;;;17.10;99.90;;;;;;5116822;28;20821;-82
2022/07/22 03:31:30;;;;;;;8.73;6.00;;;17.00;99.90;;;;;;5115845;28;20284;-82
2022/07/22 03:33:57;;;;;;;10.30;6.10;;;17.00;99.90;;;;;;5116555;28;20216;-83
2022/07/22 03:36:24;;;;;;;9.18;6.20;;;17.00;99.90;;;;;;5116963;28;20284;-83
2022/07/22 03:38:52;;;;;;;8.60;6.05;;;17.00;99.90;;;;;;5117335;28;20296;-83
2022/07/22 03:41:19;;;;;;;9.63;5.90;;;17.10;99.90;;;;;;5116366;28;20579;-81
2022/07/22 03:43:46;;;;;;;12.88;6.50;;;17.10;99.90;;;;;;5116792;28;20221;-81
2022/07/22 03:46:13;;;;;;;9.02;6.07;;;17.10;99.90;;;;;;5119189;27;20201;-82
2022/07/22 03:48:40;;;;;;;11.23;6.50;;;17.10;99.90;;;;;;5123434;27;20220;-81
2022/07/22 03:51:07;;;;;;;10.63;6.45;;;17.10;99.90;;;;;;5112680;28;20284;-81
2022/07/22 03:53:34;;;;;;;11.45;6.65;;;17.10;99.90;;;;;;5106026;28;20214;-82
2022/07/22 03:56:03;;;;;;;11.05;7.05;;;17.10;99.90;;;;;;5115017;28;20574;-81
2022/07/22 03:58:29;;;;;;;10.57;7.50;;;17.10;99.90;;;;;;5114031;28;20205;-81
2022/07/22 04:00:56;;;;;;;11.20;7.55;;;17.10;99.90;;;;;;5112711;28;20208;-81
2022/07/22 04:03:23;;;;;;;9.77;7.47;;;17.20;99.90;;;;;;5111648;28;20235;-81
2022/07/22 04:05:50;;;;;;;11.52;7.45;;;17.10;99.90;;;;;;5114038;28;20201;-80
2022/07/22 04:08:18;;;;;;;14.35;9.13;;;17.00;99.90;;;;;;5116166;28;20212;-81
2022/07/22 04:10:44;;;;;;;12.68;8.55;;;17.00;99.90;;;;;;5115262;28;20208;-81
2022/07/22 04:13:13;;;;;;;12.93;8.02;;;17.10;99.90;;;;;;5116332;28;20224;-80
2022/07/22 04:15:39;;;;;;;11.52;7.85;;;16.90;99.90;;;;;;5114560;28;20208;-81
2022/07/22 04:18:06;;;;;;;9.10;6.95;;;17.10;99.90;;;;;;5115441;28;20208;-81
2022/07/22 04:20:33;;;;;;;11.25;7.50;;;17.10;99.90;;;;;;5113741;28;20193;-81
2022/07/22 04:23:00;;;;;;;11.13;7.88;;;17.10;99.90;;;;;;5114411;28;20296;-81
2022/07/22 04:25:27;;;;;;;12.32;8.02;;;16.90;99.90;;;;;;5115774;28;20201;-81
2022/07/22 04:27:54;;;;;;;10.15;7.78;;;17.00;99.90;;;;;;5114466;28;20694;-81
2022/07/22 04:30:22;;;;;;;9.77;7.55;;;16.90;99.90;;;;;;5116539;28;20220;-81
2022/07/22 04:32:49;;;;;;;11.02;7.95;;;16.90;99.90;;;;;;5113540;28;20221;-81
2022/07/22 04:35:16;;;;;;;9.77;7.60;;;16.90;99.90;;;;;;5113591;28;20553;-81
2022/07/22 04:37:43;;;;;;;8.95;7.40;;;17.00;99.90;;;;;;5116506;28;20683;-80
2022/07/22 04:40:11;;;;;;;11.38;7.57;;;17.00;99.90;;;;;;5113622;28;20252;-83
2022/07/22 04:42:38;;;;;;;8.95;7.10;;;17.00;99.90;;;;;;5114504;28;20193;-83
2022/07/22 04:45:06;;;;;;;9.85;7.05;;;16.90;99.90;;;;;;5113744;28;20205;-82
2022/07/22 04:47:34;;;;;;;10.75;6.40;;;16.90;99.90;;;;;;5109877;28;20281;-81
2022/07/22 04:50:01;;;;;;;8.02;6.40;;;16.80;99.90;;;;;;5110959;27;20648;-81
2022/07/22 04:52:27;;;;;;;8.15;6.43;;;16.80;99.90;;;;;;5102012;27;20448;-81
2022/07/22 04:54:54;;;;;;;7.78;6.18;;;16.80;99.90;;;;;;5108312;28;20189;-81
2022/07/22 04:57:21;;;;;;;8.52;6.30;;;16.80;99.90;;;;;;5109740;28;20272;-81
2022/07/22 04:59:48;;;;;;;8.68;6.00;;;16.80;99.90;;;;;;5118278;27;20721;-81
2022/07/22 05:02:15;;;;;;;7.30;5.50;;;16.70;99.90;;;;;;5106070;28;20219;-81
2022/07/22 05:04:43;;;;;;;7.30;5.47;;;16.70;99.90;;;;;;5114691;27;20231;-81
2022/07/22 05:07:10;;;;;;;6.60;4.90;;;16.90;99.90;;;;;;5118092;27;20600;-81
2022/07/22 05:09:36;;;;;;;8.93;6.25;;;16.80;99.90;;;;;;5108893;27;20285;-81
2022/07/22 05:12:04;;;;;;;6.93;5.10;;;16.90;99.90;;;;;;5106795;28;20220;-81
2022/07/22 05:14:31;;;;;;;5.97;4.80;;;16.80;99.90;;;;;;5112394;28;20221;-81
2022/07/22 05:16:57;;;;;;;9.50;5.28;;;16.80;99.90;;;;;;5115070;27;20219;-80
2022/07/22 05:19:24;;;;;;;7.10;4.65;;;16.80;99.90;;;;;;5107805;27;20197;-80
2022/07/22 05:21:52;;;;;;;9.43;5.00;;;16.80;99.90;;;;;;5112788;27;20292;-80
2022/07/22 05:24:19;;;;;;;5.68;4.78;;;16.80;99.90;;;;;;5106541;28;20209;-81
2022/07/22 05:26:46;;;;;;;6.25;4.60;;;16.90;99.90;;;;;;5111770;27;20286;-80
2022/07/22 05:29:13;;;;;;;5.28;4.43;;;16.90;99.90;;;;;;5110437;28;20289;-81
2022/07/22 05:31:40;;;;;;;6.57;4.70;;;16.90;99.90;;;;;;5115888;27;20212;-81
2022/07/22 05:34:07;;;;;;;5.82;4.50;;;16.90;99.90;;;;;;5109040;28;20212;-80
2022/07/22 05:36:34;;;;;;;5.72;4.60;;;16.80;99.90;;;;;;5111640;27;20202;-80
2022/07/22 05:39:02;;;;;;;8.57;4.90;;;16.80;99.90;;;;;;5114700;27;20203;-81
2022/07/22 05:41:29;;;;;;;6.70;5.15;;;16.90;99.90;;;;;;5105427;28;20197;-81
2022/07/22 05:43:56;;;;;;;7.63;5.15;;;16.90;99.90;;;;;;5110583;27;20641;-81
2022/07/22 05:46:23;;;;;;;5.75;4.97;;;16.90;99.90;;;;;;5116780;28;20284;-81
2022/07/22 05:48:49;;;;;;;6.93;5.13;;;16.90;99.90;;;;;;5118842;27;20220;-80
2022/07/22 05:51:16;;;;;;;6.93;5.10;;;17.00;99.90;;;;;;5111370;27;20201;-81
2022/07/22 05:53:44;;;;;;;6.90;5.18;;;16.90;99.90;;;;;;5117240;27;20221;-81
2022/07/22 05:56:13;;;;;;;6.30;4.45;;;16.90;99.90;;;;;;5114045;28;20201;-81
2022/07/22 05:58:40;;;;;;;6.75;4.35;;;16.90;99.90;;;;;;5127715;28;20227;-81
2022/07/22 06:01:07;;;;;;;5.40;4.30;;;16.90;99.90;;;;;;5127880;27;20229;-81
2022/07/22 06:03:34;;;;;;;8.88;4.15;;;17.00;99.90;;;;;;5114322;28;20674;-81
2022/07/22 06:06:02;;;;;;;10.43;6.60;;;17.00;99.90;;;;;;5111028;28;20217;-81
2022/07/22 06:08:28;;;;;;;5.47;3.95;;;16.80;99.90;;;;;;5114828;28;20266;-81
2022/07/22 06:10:55;;;;;;;8.18;4.40;;;16.90;99.90;;;;;;5120704;27;20569;-81
2022/07/22 06:13:24;;;;;;;5.28;3.90;;;16.90;99.90;;;;;;5119756;28;20266;-82
2022/07/22 06:15:51;;;;;;;4.65;3.80;;;17.00;99.90;;;;;;5109212;28;21172;-81
2022/07/22 06:18:18;;;;;;;4.55;3.53;;;16.90;99.90;;;;;;5117533;27;20379;-81
2022/07/22 06:20:45;;;;;;;4.22;3.40;;;16.90;99.90;;;;;;5116771;27;20201;-81
2022/07/22 06:23:12;;;;;;;4.50;3.80;;;17.00;99.90;;;;;;5109002;28;20216;-81
2022/07/22 06:25:38;;;;;;;8.20;4.18;;;17.00;99.90;;;;;;5116009;28;20204;-82
2022/07/22 06:28:06;;;;;;;10.90;4.10;;;17.00;99.90;;;;;;5115833;28;20217;-82
2022/07/22 06:30:34;;;;;;;7.22;3.83;;;17.00;99.90;;;;;;5114531;28;20280;-82
2022/07/22 06:33:01;;;;;;;5.60;3.45;;;17.10;99.90;;;;;;5113896;28;20226;-81
2022/07/22 06:35:28;;;;;;;5.13;3.55;;;17.10;99.90;;;;;;5116208;28;20653;-82
2022/07/22 06:37:55;;;;;;;7.05;3.33;;;17.20;99.90;;;;;;5114206;28;20193;-82
2022/07/22 06:40:22;;;;;;;4.22;3.40;;;17.10;99.90;;;;;;5115084;28;20200;-82
2022/07/22 06:42:49;;;;;;;3.70;3.35;;;17.00;99.90;;;;;;5112158;28;20288;-82
2022/07/22 06:45:15;;;;;;;5.22;2.90;;;16.90;99.90;;;;;;5120902;28;20288;-82
2022/07/22 06:47:44;;;;;;;8.65;3.35;;;17.00;99.90;;;;;;5104420;28;20671;-82
2022/07/22 06:50:11;;;;;;;6.05;4.05;;;17.10;99.90;;;;;;5116876;28;20296;-82
2022/07/22 06:52:40;;;;;;;7.38;4.05;;;17.10;99.90;;;;;;5112352;28;20270;-82
2022/07/22 06:55:07;;;;;;;7.55;3.53;;;17.20;99.90;;;;;;5113657;28;20201;-82
2022/07/22 06:57:34;;;;;;;6.70;3.72;;;17.20;99.90;;;;;;5117915;28;20233;-82
2022/07/22 07:00:01;;;;;;;7.90;3.92;;;17.30;99.90;;;;;;5115623;28;20220;-81
2022/07/22 07:02:28;;;;;;;4.93;3.88;;;17.10;99.90;;;;;;5108652;28;20279;-81
2022/07/22 07:04:56;;;;;;;7.50;4.38;;;17.20;99.90;;;;;;5113829;28;20215;-81
2022/07/22 07:07:23;;;;;;;10.18;5.45;;;17.10;99.90;;;;;;5115358;28;20296;-81
2022/07/22 07:09:50;;;;;;;7.38;4.30;;;17.00;99.90;;;;;;5120498;28;20577;-81
2022/07/22 07:12:17;;;;;;;5.95;4.05;;;16.70;99.90;;;;;;5118533;28;20265;-81
2022/07/22 07:14:44;;;;;;;7.90;4.50;;;16.80;99.90;;;;;;5123573;28;20241;-81
2022/07/22 07:17:10;;;;;;;5.05;4.07;;;17.00;99.90;;;;;;5129130;28;20701;-81
2022/07/22 07:19:37;;;;;;;9.45;4.70;;;16.90;99.90;;;;;;5122706;28;20224;-81
2022/07/22 07:22:05;;;;;;;7.85;4.18;;;17.10;99.90;;;;;;5134904;27;20261;-81
2022/07/22 07:24:32;;;;;;;8.35;3.88;;;17.10;99.90;;;;;;5110885;28;20226;-81
2022/07/22 07:26:59;;;;;;;8.50;4.32;;;17.10;99.90;;;;;;5126448;28;20268;-81
2022/07/22 07:29:26;;;;;;;9.55;4.15;;;17.10;99.90;;;;;;5129795;28;20231;-82
2022/07/22 07:31:53;;;;;;;7.53;4.72;;;17.10;99.90;;;;;;5134832;27;20200;-81
2022/07/22 07:34:20;;;;;;;7.95;4.38;;;17.20;99.90;;;;;;5126270;27;20257;-80
2022/07/22 07:36:47;;;;;;;6.85;4.60;;;17.40;99.90;;;;;;5121337;27;20571;-81
2022/07/22 07:39:15;;;;;;;5.95;4.90;;;17.60;99.90;;;;;;5112335;28;20615;-81
2022/07/22 07:41:42;;;;;;;6.05;4.30;;;17.60;99.90;;;;;;5127581;27;20233;-81
2022/07/22 07:44:09;;;;;;;8.02;4.22;;;17.70;99.90;;;;;;5127968;28;20284;-81
2022/07/22 07:46:36;;;;;;;13.18;4.85;;;17.80;99.90;;;;;;5128703;27;20264;-81
2022/07/22 07:49:03;;;;;;;5.00;4.25;;;17.70;99.90;;;;;;5126284;27;20219;-81
2022/07/22 07:51:30;;;;;;;5.43;4.20;;;17.70;99.90;;;;;;5116367;27;20221;-81
2022/07/22 07:53:56;;;;;;;5.70;3.88;;;18.00;99.90;;;;;;5125473;27;20240;-82
2022/07/22 07:56:25;;;;;;;5.45;4.70;;;18.00;99.90;;;;;;5127079;28;20287;-83
2022/07/22 07:58:52;;;;;;;5.72;3.55;;;18.10;99.90;;;;;;5125103;27;20232;-82
2022/07/22 08:01:19;;;;;;;3.83;3.45;;;18.00;99.90;;;;;;5126550;27;20223;-83
2022/07/22 08:03:46;;;;;;;6.25;2.92;;;18.20;99.90;;;;;;5125059;28;20252;-82
2022/07/22 08:06:12;;;;;;;4.32;2.78;;;18.20;99.90;;;;;;5140492;27;20205;-82
2022/07/22 08:08:39;;;;;;;3.72;3.10;;;18.00;99.90;;;;;;5128052;27;20285;-82
2022/07/22 08:11:06;;;;;;;4.25;2.65;;;18.20;99.90;;;;;;5123816;28;20205;-81
2022/07/22 08:13:34;;;;;;;4.95;2.80;;;18.30;99.90;;;;;;5119685;27;20690;-81
2022/07/22 08:16:01;;;;;;;2.95;2.65;;;18.60;99.90;;;;;;5129798;27;20416;-81
2022/07/22 08:18:29;;;;;;;5.03;2.75;;;18.50;99.90;;;;;;5118933;27;20253;-81
2022/07/22 08:20:57;;;;;;;3.55;2.58;;;18.60;99.90;;;;;;5130933;27;20220;-81
2022/07/22 08:23:24;;;;;;;4.78;2.80;;;18.60;99.90;;;;;;5117274;27;20244;-81
2022/07/22 08:25:51;;;;;;;2.60;2.22;;;18.80;99.90;;;;;;5129923;27;20232;-81
2022/07/22 08:28:18;;;;;;;3.63;2.20;;;18.90;99.90;;;;;;5120572;27;20240;-81
2022/07/22 08:30:47;;;;;;;3.72;1.80;;;18.70;99.90;;;;;;5124048;27;20595;-81
2022/07/22 08:33:13;;;;;;;2.95;2.63;;;18.70;99.90;;;;;;5119818;28;20586;-81
2022/07/22 08:35:40;;;;;;;6.95;3.58;;;18.70;99.90;;;;;;5129892;27;20207;-81
2022/07/22 08:38:07;;;;;;;4.70;3.08;;;18.50;99.90;;;;;;5123375;27;20288;-81
2022/07/22 08:40:34;;;;;;;5.55;3.33;;;18.30;99.90;;;;;;5123341;27;20732;-81
2022/07/22 08:43:02;;;;;;;6.35;3.60;;;18.40;99.90;;;;;;5115327;27;20295;-81
2022/07/22 08:45:30;;;;;;;3.88;3.42;;;18.40;99.90;;;;;;5119279;27;20205;-82
2022/07/22 08:48:02;;;;;;;5.82;3.25;;;18.60;99.90;;;;;;5115964;28;20201;-81
2022/07/22 08:50:29;;;;;;;7.13;3.30;;;18.70;99.90;;;;;;5118561;27;20197;-81
2022/07/22 08:52:56;;;;;;;4.95;3.60;;;18.80;99.90;;;;;;5125228;27;20215;-81
2022/07/22 08:55:23;;;;;;;4.35;3.20;;;18.80;99.90;;;;;;5116430;27;20207;-81
2022/07/22 08:57:50;;;;;;;3.42;3.05;;;18.90;99.90;;;;;;5115051;28;20289;-82
2022/07/22 09:00:19;;;;;;;3.42;2.90;;;18.90;99.90;;;;;;5120720;28;20201;-81
2022/07/22 09:02:47;;;;;;;7.38;3.58;;;19.00;99.90;;;;;;5122154;28;20296;-81
2022/07/22 09:05:16;;;;;;;5.28;3.03;;;18.90;99.90;;;;;;5119141;28;20288;-82
2022/07/22 09:07:44;;;;;;;4.20;2.60;;;19.00;99.90;;;;;;5124521;28;20212;-83
2022/07/22 09:10:14;;;;;;;2.38;2.17;;;18.80;99.90;;;;;;5119645;28;20274;-82
2022/07/22 09:12:53;;;;;;;4.25;2.78;;;19.00;99.90;;;;;;5112311;28;20221;-82
2022/07/22 09:15:27;;;;;;;4.28;2.55;;;19.20;99.90;;;;;;5121440;27;20234;-82
2022/07/22 09:17:54;;;;;;;4.80;2.33;;;19.00;99.90;;;;;;5115493;28;20196;-82
2022/07/22 09:20:22;;;;;;;3.40;2.50;;;19.10;99.90;;;;;;5117730;28;20198;-82
2022/07/22 09:22:51;;;;;;;3.35;2.33;;;18.70;99.90;;;;;;5110944;28;20225;-82
2022/07/22 09:25:27;;;;;;;5.68;2.53;;;19.00;99.90;;;;;;5094818;28;20213;-82
2022/07/22 09:27:56;;;;;;;3.38;2.78;;;19.10;99.90;;;;;;5096716;28;20212;-82
2022/07/22 09:30:25;;;;;;;3.88;2.60;;;19.00;99.90;;;;;;5117319;28;20211;-82
2022/07/22 09:32:54;;;;;;;4.38;2.72;;;19.20;99.90;;;;;;5114174;28;20311;-82
2022/07/22 09:35:22;;;;;;;4.95;3.08;;;19.40;99.90;;;;;;5118725;28;20579;-82
2022/07/22 09:37:53;;;;;;;4.30;2.80;;;19.60;99.90;;;;;;5121723;28;20211;-82
2022/07/22 09:40:22;;;;;;;3.33;2.60;;;19.50;99.90;;;;;;5116351;28;20201;-82
2022/07/22 09:42:51;;;;;;;4.53;2.80;;;19.50;99.90;;;;;;5121478;28;20288;-82
2022/07/22 09:45:18;;;;;;;3.85;2.80;;;20.00;99.90;;;;;;5109073;28;20658;-82
2022/07/22 09:47:46;;;;;;;4.43;2.83;;;20.10;99.90;;;;;;5096866;28;20277;-81
2022/07/22 09:50:19;;;;;;;2.90;2.33;;;20.20;99.90;;;;;;5094577;28;20312;-82
2022/07/22 09:52:48;;;;;;;4.15;2.70;;;20.20;99.90;;;;;;5102349;28;20276;-82
2022/07/22 09:55:16;;;;;;;3.20;2.10;;;20.00;99.90;;;;;;5106939;28;20201;-83
2022/07/22 09:57:43;;;;;;;2.42;2.05;;;19.80;99.90;;;;;;5116868;28;20208;-82
2022/07/22 10:00:11;;;;;;;3.47;2.40;;;20.10;99.90;;;;;;5118896;28;20215;-82
2022/07/22 10:02:43;;;;;;;3.90;2.55;;;20.30;99.90;;;;;;5118156;28;20255;-82
2022/07/22 10:05:12;;;;;;;3.13;2.83;;;20.40;99.90;;;;;;5114384;28;20207;-82
2022/07/22 10:07:42;;;;;;;3.13;2.83;;;20.10;99.90;;;;;;5118365;28;20196;-82
2022/07/22 10:10:13;;;;;;;3.67;2.47;;;19.90;99.90;;;;;;5114400;28;20224;-82
2022/07/22 10:12:41;;;;;;;3.45;2.35;;;19.90;99.90;;;;;;5115464;28;20283;-82
2022/07/22 10:15:10;;;;;;;3.15;2.67;;;20.30;99.90;;;;;;5116325;28;20295;-82
2022/07/22 10:17:39;;;;;;;3.17;2.80;;;20.30;99.90;;;;;;5114764;28;20240;-82
2022/07/22 10:20:07;;;;;;;4.60;3.58;;;20.20;99.90;;;;;;5116183;28;20557;-82
2022/07/22 10:23:04;;;;;;;2.72;2.53;;;20.30;99.90;;;;;;5114865;28;20225;-82
2022/07/22 10:25:50;;;;;;;4.88;2.90;;;20.50;99.90;;;;;;5052288;28;20604;-82
2022/07/22 10:28:23;;;;;;;2.03;1.70;;;20.50;99.90;;;;;;5111720;28;20215;-82
2022/07/22 10:30:50;;;;;;;3.47;2.03;;;20.50;99.90;;;;;;5117505;28;20565;-81
2022/07/22 10:33:19;;;;;;;2.05;1.95;;;20.40;99.90;;;;;;5103979;28;20707;-81
2022/07/22 10:35:58;;;;;;;2.25;2.05;;;20.50;99.90;;;;;;5104595;28;20668;-81
2022/07/22 10:38:26;;;;;;;2.67;2.47;;;20.30;99.90;;;;;;5109356;28;20202;-82
2022/07/22 10:40:56;;;;;;;2.88;2.65;;;20.30;99.90;;;;;;5112851;28;20291;-82
2022/07/22 10:43:24;;;;;;;2.35;2.15;;;20.60;99.90;;;;;;5098844;28;20407;-82
2022/07/22 10:45:56;;;;;;;2.75;2.13;;;20.50;99.90;;;;;;5116107;28;20208;-82
2022/07/22 10:48:26;;;;;;;4.88;2.58;;;20.50;99.90;;;;;;5111862;28;20204;-82
2022/07/22 10:51:07;;;;;;;2.47;1.98;;;20.40;99.90;;;;;;5112285;28;20219;-83
2022/07/22 10:53:47;;;;;;;3.75;2.70;;;20.20;99.90;;;;;;5113193;28;20691;-82
2022/07/22 10:56:26;;;;;;;2.25;2.03;;;20.10;99.90;;;;;;5112867;28;20247;-82
2022/07/22 10:59:08;;;;;;;1.92;1.83;;;20.20;99.90;;;;;;5104557;27;20736;-83
2022/07/22 11:01:36;;;;;;;2.67;2.28;;;20.30;99.90;;;;;;5123971;27;20231;-83
2022/07/22 11:04:12;;;;;;;2.45;2.00;;;20.30;99.90;;;;;;5121116;27;20296;-83
2022/07/22 11:06:39;;;;;;;4.50;2.40;;;20.30;99.90;;;;;;5127170;27;20219;-82
2022/07/22 11:09:09;;;;;;;3.10;2.03;;;20.40;99.90;;;;;;5121146;28;20751;-82
2022/07/22 11:11:41;;;;;;;2.58;2.35;;;20.30;99.90;;;;;;5122830;27;20269;-82
2022/07/22 11:14:26;;;;;;;3.78;2.63;;;20.30;99.90;;;;;;5122988;28;20221;-83
2022/07/22 11:16:55;;;;;;;3.28;2.75;;;20.40;99.90;;;;;;5144303;27;20260;-83
2022/07/22 11:19:24;;;;;;;5.05;2.30;;;20.10;99.90;;;;;;5121781;28;20227;-83
2022/07/22 11:21:52;;;;;;;4.47;2.80;;;20.30;99.90;;;;;;5129673;27;20289;-82
2022/07/22 11:24:20;;;;;;;3.33;3.03;;;20.40;99.90;;;;;;5119884;28;20688;-82
2022/07/22 11:26:50;;;;;;;5.28;3.28;;;20.00;99.90;;;;;;5115289;28;20201;-83
2022/07/22 11:29:19;;;;;;;5.18;3.28;;;20.00;99.90;;;;;;5121765;27;20213;-83
2022/07/22 11:31:46;;;;;;;6.35;3.85;;;20.00;99.90;;;;;;5118956;28;20260;-83
2022/07/22 11:34:15;;;;;;;3.47;3.17;;;20.20;99.90;;;;;;5124359;27;20241;-83
2022/07/22 11:36:44;;;;;;;6.18;3.20;;;20.30;99.90;;;;;;5125432;27;20202;-83
2022/07/22 11:39:13;;;;;;;5.65;3.35;;;20.20;99.90;;;;;;5121829;28;20212;-83
2022/07/22 11:41:40;;;;;;;8.75;3.67;;;20.30;99.90;;;;;;5118423;27;20207;-83
2022/07/22 11:44:09;;;;;;;7.72;3.92;;;20.20;99.90;;;;;;5127579;27;20224;-83
2022/07/22 11:46:37;;;;;;;5.88;3.78;;;20.20;99.90;;;;;;5122850;28;20727;-82
2022/07/22 11:49:04;;;;;;;5.43;3.60;;;20.40;99.90;;;;;;5129126;27;20225;-82
2022/07/22 11:51:33;;;;;;;5.43;3.30;;;20.30;99.90;;;;;;5114621;28;20202;-83
2022/07/22 11:54:01;;;;;;;6.13;3.55;;;20.40;99.90;;;;;;5124233;28;20235;-83
2022/07/22 11:56:28;;;;;;;6.03;3.47;;;20.20;99.90;;;;;;5122346;28;20265;-83
2022/07/22 11:58:56;;;;;;;5.35;3.38;;;20.30;99.90;;;;;;5126150;27;20261;-83
2022/07/22 12:01:26;;;;;;;6.07;3.97;;;20.30;99.90;;;;;;5114890;28;20633;-83
2022/07/22 12:03:57;;;;;;;8.95;3.60;;;20.10;99.90;;;;;;5123008;27;20209;-83
2022/07/22 12:06:24;;;;;;;8.68;3.78;;;20.20;99.90;;;;;;5112438;28;20609;-81
2022/07/22 12:08:54;;;;;;;9.55;3.50;;;20.10;99.90;;;;;;5114953;28;20208;-81
2022/07/22 12:11:23;;;;;;;5.20;3.30;;;20.00;99.90;;;;;;5117399;27;20197;-81
2022/07/22 12:13:52;;;;;;;7.80;4.00;;;20.10;99.90;;;;;;5117143;28;20280;-81
2022/07/22 12:16:21;;;;;;;7.20;3.80;;;20.20;99.90;;;;;;5116919;28;20371;-82
2022/07/22 12:18:55;;;;;;;5.68;3.47;;;20.20;99.90;;;;;;5112095;28;20194;-82
2022/07/22 12:21:23;;;;;;;5.53;3.50;;;20.20;99.90;;;;;;5108269;28;20257;-82
2022/07/22 12:23:56;;;;;;;8.75;4.03;;;20.10;99.90;;;;;;5117199;28;20216;-82
2022/07/22 12:26:44;;;;;;;7.15;4.03;;;20.30;99.90;;;;;;5118200;28;20205;-82
2022/07/22 12:29:22;;;;;;;6.63;3.65;;;20.00;99.90;;;;;;5115681;27;20201;-82
2022/07/22 12:31:50;;;;;;;8.23;3.70;;;20.20;99.90;;;;;;5111735;27;20201;-82
2022/07/22 12:34:30;;;;;;;4.47;3.22;;;20.30;99.90;;;;;;5117394;27;20225;-82
2022/07/22 12:36:57;;;;;;;5.80;3.20;;;20.30;99.90;;;;;;5112364;28;20687;-82
2022/07/22 12:39:25;;;;;;;5.65;3.40;;;20.50;99.90;;;;;;5115501;28;20253;-82
2022/07/22 12:41:54;;;;;;;5.35;3.70;;;20.50;99.90;;;;;;5118682;27;20264;-82
2022/07/22 12:44:22;;;;;;;7.32;3.80;;;20.20;99.90;;;;;;5127634;27;20232;-82
2022/07/22 12:46:52;;;;;;;10.50;7.85;;;20.10;99.90;;;;;;5114516;28;20213;-82